sensor_id;sensor_type;location;lat;lon;timestamp;pressure;altitude;pressure_sealevel;temperature;humidity
20455;BME280;10386;54.314;10.022;2023-03-23T00:01:21;98961.50;;;10.84;100.00
20455;BME280;10386;54.314;10.022;2023-03-23T00:03:49;98963.03;;;10.86;100.00
20455;BME280;10386;54.314;10.022;2023-03-23T00:06:17;98961.25;;;10.77;100.00
20455;BME280;10386;54.314;10.022;2023-03-23T00:08:47;98941.53;;;10.93;100.00
20455;BME280;10386;54.314;10.022;2023-03-23T00:11:17;98943.50;;;10.83;100.00
20455;BME280;10386;54.314;10.022;2023-03-23T00:13:48;98948.13;;;10.90;100.00
20455;BME280;10386;54.314;10.022;2023-03-23T00:16:20;98952.41;;;10.75;100.00
20455;BME280;10386;54.314;10.022;2023-03-23T00:18:54;98951.25;;;10.78;100.00
20455;BME280;10386;54.314;10.022;2023-03-23T00:21:26;98955.19;;;10.83;100.00
20455;BME280;10386;54.314;10.022;2023-03-23T00:26:28;98956.06;;;10.84;100.00
20455;BME280;10386;54.314;10.022;2023-03-23T00:28:55;98964.28;;;10.74;100.00
20455;BME280;10386;54.314;10.022;2023-03-23T00:31:21;98971.41;;;10.75;100.00
20455;BME280;10386;54.314;10.022;2023-03-23T00:33:47;98968.44;;;10.86;100.00
20455;BME280;10386;54.314;10.022;2023-03-23T00:36:13;98971.97;;;10.79;100.00
20455;BME280;10386;54.314;10.022;2023-03-23T00:38:40;98969.47;;;10.85;100.00
20455;BME280;10386;54.314;10.022;2023-03-23T00:41:10;98958.38;;;10.79;100.00
20455;BME280;10386;54.314;10.022;2023-03-23T00:43:37;98965.72;;;10.86;100.00
20455;BME280;10386;54.314;10.022;2023-03-23T00:46:04;98969.13;;;10.88;100.00
20455;BME280;10386;54.314;10.022;2023-03-23T00:48:36;98962.56;;;10.91;100.00
20455;BME280;10386;54.314;10.022;2023-03-23T00:51:06;98961.81;;;10.81;100.00
20455;BME280;10386;54.314;10.022;2023-03-23T00:53:38;98980.94;;;10.79;100.00
20455;BME280;10386;54.314;10.022;2023-03-23T00:56:05;98988.63;;;10.84;100.00
20455;BME280;10386;54.314;10.022;2023-03-23T00:58:31;98990.72;;;10.72;100.00
20455;BME280;10386;54.314;10.022;2023-03-23T01:00:57;98971.78;;;10.63;100.00
20455;BME280;10386;54.314;10.022;2023-03-23T01:03:22;98981.66;;;10.64;100.00
20455;BME280;10386;54.314;10.022;2023-03-23T01:05:52;98966.84;;;10.58;100.00
20455;BME280;10386;54.314;10.022;2023-03-23T01:08:18;98969.84;;;10.55;100.00
20455;BME280;10386;54.314;10.022;2023-03-23T01:10:45;98968.84;;;10.56;100.00
20455;BME280;10386;54.314;10.022;2023-03-23T01:13:11;98955.22;;;10.66;100.00
20455;BME280;10386;54.314;10.022;2023-03-23T01:15:37;98951.00;;;10.71;100.00
20455;BME280;10386;54.314;10.022;2023-03-23T01:18:04;98932.88;;;10.72;100.00
20455;BME280;10386;54.314;10.022;2023-03-23T01:20:29;98934.66;;;10.63;100.00
20455;BME280;10386;54.314;10.022;2023-03-23T01:22:57;98942.41;;;10.58;100.00
20455;BME280;10386;54.314;10.022;2023-03-23T01:25:31;98926.44;;;10.55;100.00
20455;BME280;10386;54.314;10.022;2023-03-23T01:27:58;98923.66;;;10.65;100.00
20455;BME280;10386;54.314;10.022;2023-03-23T01:30:24;98911.94;;;10.64;100.00
20455;BME280;10386;54.314;10.022;2023-03-23T01:32:50;98915.44;;;10.39;100.00
20455;BME280;10386;54.314;10.022;2023-03-23T01:35:17;98934.66;;;10.28;100.00
20455;BME280;10386;54.314;10.022;2023-03-23T01:37:43;98919.88;;;10.40;100.00
20455;BME280;10386;54.314;10.022;2023-03-23T01:40:09;98909.84;;;10.41;100.00
20455;BME280;10386;54.314;10.022;2023-03-23T01:42:37;98894.75;;;10.38;100.00
20455;BME280;10386;54.314;10.022;2023-03-23T01:45:26;98901.03;;;10.21;100.00
20455;BME280;10386;54.314;10.022;2023-03-23T01:47:56;98891.78;;;10.32;100.00
20455;BME280;10386;54.314;10.022;2023-03-23T01:50:24;98895.13;;;10.26;100.00
20455;BME280;10386;54.314;10.022;2023-03-23T01:52:54;98895.91;;;10.36;100.00
20455;BME280;10386;54.314;10.022;2023-03-23T01:55:25;98896.22;;;10.33;100.00
20455;BME280;10386;54.314;10.022;2023-03-23T01:57:52;98896.78;;;10.36;100.00
20455;BME280;10386;54.314;10.022;2023-03-23T02:00:19;98894.88;;;10.19;100.00
20455;BME280;10386;54.314;10.022;2023-03-23T02:02:49;98887.16;;;10.24;100.00
20455;BME280;10386;54.314;10.022;2023-03-23T02:05:22;98874.91;;;10.20;100.00
20455;BME280;10386;54.314;10.022;2023-03-23T02:07:50;98866.31;;;10.42;100.00
20455;BME280;10386;54.314;10.022;2023-03-23T02:10:16;98870.09;;;10.32;100.00
20455;BME280;10386;54.314;10.022;2023-03-23T02:12:42;98871.03;;;10.23;100.00
20455;BME280;10386;54.314;10.022;2023-03-23T02:15:08;98878.59;;;10.19;100.00
20455;BME280;10386;54.314;10.022;2023-03-23T02:17:52;98889.75;;;10.16;100.00
20455;BME280;10386;54.314;10.022;2023-03-23T02:20:37;98894.88;;;10.19;100.00
20455;BME280;10386;54.314;10.022;2023-03-23T02:23:13;98880.56;;;10.27;100.00
20455;BME280;10386;54.314;10.022;2023-03-23T02:31:57;98857.16;;;10.08;100.00
20455;BME280;10386;54.314;10.022;2023-03-23T02:34:41;98849.78;;;10.18;100.00
20455;BME280;10386;54.314;10.022;2023-03-23T02:37:14;98855.00;;;10.12;100.00
20455;BME280;10386;54.314;10.022;2023-03-23T02:39:50;98842.13;;;10.14;100.00
20455;BME280;10386;54.314;10.022;2023-03-23T02:42:21;98833.63;;;10.09;100.00
20455;BME280;10386;54.314;10.022;2023-03-23T02:44:49;98834.75;;;10.06;100.00
20455;BME280;10386;54.314;10.022;2023-03-23T02:47:22;98829.34;;;10.06;100.00
20455;BME280;10386;54.314;10.022;2023-03-23T02:49:50;98812.44;;;10.12;100.00
20455;BME280;10386;54.314;10.022;2023-03-23T02:52:22;98810.59;;;10.13;100.00
20455;BME280;10386;54.314;10.022;2023-03-23T02:54:51;98786.41;;;10.19;100.00
20455;BME280;10386;54.314;10.022;2023-03-23T02:57:19;98794.09;;;10.06;100.00
20455;BME280;10386;54.314;10.022;2023-03-23T02:59:46;98791.88;;;10.02;100.00
20455;BME280;10386;54.314;10.022;2023-03-23T03:02:22;98793.41;;;10.04;100.00
20455;BME280;10386;54.314;10.022;2023-03-23T03:04:56;98756.16;;;10.06;100.00
20455;BME280;10386;54.314;10.022;2023-03-23T03:07:29;98750.47;;;10.17;100.00
20455;BME280;10386;54.314;10.022;2023-03-23T03:10:06;98733.59;;;10.23;100.00
20455;BME280;10386;54.314;10.022;2023-03-23T03:15:24;98704.28;;;10.01;100.00
20455;BME280;10386;54.314;10.022;2023-03-23T03:18:04;98712.94;;;9.87;100.00
20455;BME280;10386;54.314;10.022;2023-03-23T03:20:35;98735.53;;;9.78;100.00
20455;BME280;10386;54.314;10.022;2023-03-23T03:23:03;98756.91;;;9.81;100.00
20455;BME280;10386;54.314;10.022;2023-03-23T03:25:33;98772.78;;;9.76;100.00
20455;BME280;10386;54.314;10.022;2023-03-23T03:27:59;98775.63;;;9.75;100.00
20455;BME280;10386;54.314;10.022;2023-03-23T03:30:29;98782.22;;;9.72;100.00
20455;BME280;10386;54.314;10.022;2023-03-23T03:32:57;98778.25;;;9.67;100.00
20455;BME280;10386;54.314;10.022;2023-03-23T03:35:25;98740.94;;;9.61;100.00
20455;BME280;10386;54.314;10.022;2023-03-23T03:37:52;98722.38;;;9.66;100.00
20455;BME280;10386;54.314;10.022;2023-03-23T03:40:20;98718.88;;;9.56;100.00
20455;BME280;10386;54.314;10.022;2023-03-23T03:42:47;98724.69;;;9.61;100.00
20455;BME280;10386;54.314;10.022;2023-03-23T03:45:16;98715.03;;;9.58;100.00
20455;BME280;10386;54.314;10.022;2023-03-23T03:47:42;98707.81;;;9.67;100.00
20455;BME280;10386;54.314;10.022;2023-03-23T03:50:08;98715.56;;;9.62;100.00
20455;BME280;10386;54.314;10.022;2023-03-23T03:52:34;98709.00;;;9.64;100.00
20455;BME280;10386;54.314;10.022;2023-03-23T03:55:00;98700.78;;;9.57;100.00
20455;BME280;10386;54.314;10.022;2023-03-23T03:57:26;98699.00;;;9.65;100.00
20455;BME280;10386;54.314;10.022;2023-03-23T03:59:52;98677.88;;;9.68;100.00
20455;BME280;10386;54.314;10.022;2023-03-23T04:02:18;98660.81;;;9.76;100.00
20455;BME280;10386;54.314;10.022;2023-03-23T04:04:49;98666.28;;;9.58;100.00
20455;BME280;10386;54.314;10.022;2023-03-23T04:07:15;98653.50;;;9.68;100.00
20455;BME280;10386;54.314;10.022;2023-03-23T04:09:45;98649.09;;;9.67;100.00
20455;BME280;10386;54.314;10.022;2023-03-23T04:12:13;98650.03;;;9.58;100.00
20455;BME280;10386;54.314;10.022;2023-03-23T04:14:38;98637.63;;;9.56;100.00
20455;BME280;10386;54.314;10.022;2023-03-23T04:17:04;98627.81;;;9.55;100.00
20455;BME280;10386;54.314;10.022;2023-03-23T04:19:30;98642.78;;;9.42;100.00
20455;BME280;10386;54.314;10.022;2023-03-23T04:21:58;98623.13;;;9.40;100.00
20455;BME280;10386;54.314;10.022;2023-03-23T04:24:24;98626.97;;;9.37;100.00
20455;BME280;10386;54.314;10.022;2023-03-23T04:26:50;98620.47;;;9.48;100.00
20455;BME280;10386;54.314;10.022;2023-03-23T04:29:20;98619.38;;;9.58;100.00
20455;BME280;10386;54.314;10.022;2023-03-23T04:31:45;98627.81;;;9.55;100.00
20455;BME280;10386;54.314;10.022;2023-03-23T04:34:11;98626.22;;;9.45;100.00
20455;BME280;10386;54.314;10.022;2023-03-23T04:36:40;98616.78;;;9.49;100.00
20455;BME280;10386;54.314;10.022;2023-03-23T04:39:06;98599.91;;;9.37;100.00
20455;BME280;10386;54.314;10.022;2023-03-23T04:41:36;98580.31;;;9.43;100.00
20455;BME280;10386;54.314;10.022;2023-03-23T04:44:02;98584.41;;;9.47;100.00
20455;BME280;10386;54.314;10.022;2023-03-23T04:46:28;98583.56;;;9.47;100.00
20455;BME280;10386;54.314;10.022;2023-03-23T04:48:55;98585.41;;;9.46;100.00
20455;BME280;10386;54.314;10.022;2023-03-23T04:51:25;98586.38;;;9.37;100.00
20455;BME280;10386;54.314;10.022;2023-03-23T04:53:52;98593.09;;;9.33;100.00
20455;BME280;10386;54.314;10.022;2023-03-23T04:56:17;98594.47;;;9.37;100.00
20455;BME280;10386;54.314;10.022;2023-03-23T04:58:44;98587.81;;;9.32;100.00
20455;BME280;10386;54.314;10.022;2023-03-23T05:01:10;98572.81;;;9.37;100.00
20455;BME280;10386;54.314;10.022;2023-03-23T05:03:40;98574.47;;;9.30;100.00
20455;BME280;10386;54.314;10.022;2023-03-23T05:06:06;98571.25;;;9.35;100.00
20455;BME280;10386;54.314;10.022;2023-03-23T05:08:32;98570.19;;;9.28;100.00
20455;BME280;10386;54.314;10.022;2023-03-23T05:10:59;98567.09;;;9.40;100.00
20455;BME280;10386;54.314;10.022;2023-03-23T05:13:27;98554.94;;;9.44;100.00
20455;BME280;10386;54.314;10.022;2023-03-23T05:15:53;98546.81;;;9.44;100.00
20455;BME280;10386;54.314;10.022;2023-03-23T05:18:18;98544.28;;;9.43;100.00
20455;BME280;10386;54.314;10.022;2023-03-23T05:20:46;98541.56;;;9.43;100.00
20455;BME280;10386;54.314;10.022;2023-03-23T05:23:12;98547.31;;;9.40;100.00
20455;BME280;10386;54.314;10.022;2023-03-23T05:25:38;98531.06;;;9.40;100.00
20455;BME280;10386;54.314;10.022;2023-03-23T05:28:08;98528.41;;;9.48;100.00
20455;BME280;10386;54.314;10.022;2023-03-23T05:30:34;98518.59;;;9.47;100.00
20455;BME280;10386;54.314;10.022;2023-03-23T05:33:00;98513.09;;;9.64;100.00
20455;BME280;10386;54.314;10.022;2023-03-23T05:35:26;98501.75;;;9.60;100.00
20455;BME280;10386;54.314;10.022;2023-03-23T05:37:52;98504.88;;;9.73;100.00
20455;BME280;10386;54.314;10.022;2023-03-23T05:40:19;98494.09;;;9.81;100.00
20455;BME280;10386;54.314;10.022;2023-03-23T05:42:45;98490.25;;;9.92;100.00
20455;BME280;10386;54.314;10.022;2023-03-23T05:45:11;98477.53;;;9.92;100.00
20455;BME280;10386;54.314;10.022;2023-03-23T05:47:41;98472.31;;;9.91;100.00
20455;BME280;10386;54.314;10.022;2023-03-23T05:50:08;98465.44;;;10.04;100.00
20455;BME280;10386;54.314;10.022;2023-03-23T05:52:35;98456.50;;;10.12;100.00
20455;BME280;10386;54.314;10.022;2023-03-23T05:55:02;98454.69;;;10.20;100.00
20455;BME280;10386;54.314;10.022;2023-03-23T05:57:29;98449.72;;;10.16;100.00
20455;BME280;10386;54.314;10.022;2023-03-23T05:59:55;98434.16;;;10.26;100.00
20455;BME280;10386;54.314;10.022;2023-03-23T06:02:23;98419.13;;;10.31;100.00
20455;BME280;10386;54.314;10.022;2023-03-23T06:04:50;98399.97;;;10.41;100.00
20455;BME280;10386;54.314;10.022;2023-03-23T06:07:25;98398.25;;;10.40;100.00
20455;BME280;10386;54.314;10.022;2023-03-23T06:09:51;98393.03;;;10.38;100.00
20455;BME280;10386;54.314;10.022;2023-03-23T06:12:17;98397.44;;;10.47;100.00
20455;BME280;10386;54.314;10.022;2023-03-23T06:14:46;98399.16;;;10.56;100.00
20455;BME280;10386;54.314;10.022;2023-03-23T06:17:14;98378.31;;;10.73;100.00
20455;BME280;10386;54.314;10.022;2023-03-23T06:19:40;98377.09;;;10.75;100.00
20455;BME280;10386;54.314;10.022;2023-03-23T06:22:06;98386.25;;;10.66;100.00
20455;BME280;10386;54.314;10.022;2023-03-23T06:24:31;98395.75;;;10.78;100.00
20455;BME280;10386;54.314;10.022;2023-03-23T06:26:58;98373.53;;;10.98;100.00
20455;BME280;10386;54.314;10.022;2023-03-23T06:29:24;98378.94;;;11.06;100.00
20455;BME280;10386;54.314;10.022;2023-03-23T06:31:55;98377.75;;;11.01;100.00
20455;BME280;10386;54.314;10.022;2023-03-23T06:34:23;98377.41;;;11.20;100.00
20455;BME280;10386;54.314;10.022;2023-03-23T06:36:48;98371.81;;;11.13;100.00
20455;BME280;10386;54.314;10.022;2023-03-23T06:39:14;98368.91;;;11.31;100.00
20455;BME280;10386;54.314;10.022;2023-03-23T06:41:40;98352.03;;;11.59;100.00
20455;BME280;10386;54.314;10.022;2023-03-23T06:44:05;98370.56;;;11.48;100.00
20455;BME280;10386;54.314;10.022;2023-03-23T06:46:33;98356.25;;;11.54;100.00
20455;BME280;10386;54.314;10.022;2023-03-23T06:48:59;98361.38;;;11.49;100.00
20455;BME280;10386;54.314;10.022;2023-03-23T06:51:25;98367.50;;;11.43;100.00
20455;BME280;10386;54.314;10.022;2023-03-23T06:53:50;98367.84;;;11.40;100.00
20455;BME280;10386;54.314;10.022;2023-03-23T06:56:16;98374.66;;;11.36;100.00
20455;BME280;10386;54.314;10.022;2023-03-23T06:58:42;98387.59;;;11.26;100.00
20455;BME280;10386;54.314;10.022;2023-03-23T07:01:08;98390.31;;;11.18;100.00
20455;BME280;10386;54.314;10.022;2023-03-23T07:03:35;98404.25;;;11.15;100.00
20455;BME280;10386;54.314;10.022;2023-03-23T07:06:00;98396.09;;;10.99;100.00
20455;BME280;10386;54.314;10.022;2023-03-23T07:08:26;98394.03;;;11.01;100.00
20455;BME280;10386;54.314;10.022;2023-03-23T07:10:53;98398.13;;;11.05;100.00
20455;BME280;10386;54.314;10.022;2023-03-23T07:13:20;98392.00;;;11.03;100.00
20455;BME280;10386;54.314;10.022;2023-03-23T07:15:46;98417.66;;;10.93;100.00
20455;BME280;10386;54.314;10.022;2023-03-23T07:18:13;98409.31;;;10.86;100.00
20455;BME280;10386;54.314;10.022;2023-03-23T07:20:39;98414.59;;;10.88;100.00
20455;BME280;10386;54.314;10.022;2023-03-23T07:23:04;98392.34;;;11.00;100.00
20455;BME280;10386;54.314;10.022;2023-03-23T07:25:34;98391.34;;;11.09;100.00
20455;BME280;10386;54.314;10.022;2023-03-23T07:28:01;98395.75;;;11.18;100.00
20455;BME280;10386;54.314;10.022;2023-03-23T07:30:28;98404.25;;;11.07;100.00
20455;BME280;10386;54.314;10.022;2023-03-23T07:32:56;98423.06;;;11.08;100.00
20455;BME280;10386;54.314;10.022;2023-03-23T07:35:22;98425.59;;;11.26;100.00
20455;BME280;10386;54.314;10.022;2023-03-23T07:37:48;98420.34;;;11.24;100.00
20455;BME280;10386;54.314;10.022;2023-03-23T07:40:15;98424.75;;;11.17;100.00
20455;BME280;10386;54.314;10.022;2023-03-23T07:42:45;98440.72;;;11.12;100.00
20455;BME280;10386;54.314;10.022;2023-03-23T07:45:13;98440.19;;;11.01;100.00
20455;BME280;10386;54.314;10.022;2023-03-23T07:47:39;98454.78;;;11.00;100.00
20455;BME280;10386;54.314;10.022;2023-03-23T07:50:06;98452.25;;;11.06;100.00
20455;BME280;10386;54.314;10.022;2023-03-23T07:52:33;98488.72;;;11.04;100.00
20455;BME280;10386;54.314;10.022;2023-03-23T07:54:59;98480.28;;;11.07;100.00
20455;BME280;10386;54.314;10.022;2023-03-23T07:57:27;98486.34;;;11.41;100.00
20455;BME280;10386;54.314;10.022;2023-03-23T07:59:53;98490.78;;;11.42;100.00
20455;BME280;10386;54.314;10.022;2023-03-23T08:02:19;98508.44;;;11.30;100.00
20455;BME280;10386;54.314;10.022;2023-03-23T08:04:45;98535.94;;;11.35;100.00
20455;BME280;10386;54.314;10.022;2023-03-23T08:07:11;98538.50;;;11.52;100.00
20455;BME280;10386;54.314;10.022;2023-03-23T08:09:38;98550.88;;;11.79;100.00
20455;BME280;10386;54.314;10.022;2023-03-23T08:12:04;98557.34;;;11.94;100.00
20455;BME280;10386;54.314;10.022;2023-03-23T08:14:30;98563.88;;;12.15;100.00
20455;BME280;10386;54.314;10.022;2023-03-23T08:16:56;98588.59;;;11.98;100.00
20455;BME280;10386;54.314;10.022;2023-03-23T08:19:22;98610.34;;;11.82;100.00
20455;BME280;10386;54.314;10.022;2023-03-23T08:21:49;98617.97;;;11.94;100.00
20455;BME280;10386;54.314;10.022;2023-03-23T08:24:15;98651.09;;;11.66;100.00
20455;BME280;10386;54.314;10.022;2023-03-23T08:26:44;98667.75;;;11.71;100.00
20455;BME280;10386;54.314;10.022;2023-03-23T08:29:10;98692.56;;;11.68;100.00
20455;BME280;10386;54.314;10.022;2023-03-23T08:31:36;98721.69;;;11.50;100.00
20455;BME280;10386;54.314;10.022;2023-03-23T08:34:03;98731.19;;;11.46;100.00
20455;BME280;10386;54.314;10.022;2023-03-23T08:36:31;98753.41;;;11.41;100.00
20455;BME280;10386;54.314;10.022;2023-03-23T08:38:57;98783.97;;;11.35;100.00
20455;BME280;10386;54.314;10.022;2023-03-23T08:41:23;98794.69;;;11.45;100.00
20455;BME280;10386;54.314;10.022;2023-03-23T08:43:49;98796.41;;;11.46;100.00
20455;BME280;10386;54.314;10.022;2023-03-23T08:46:15;98817.19;;;11.55;100.00
20455;BME280;10386;54.314;10.022;2023-03-23T08:48:42;98827.00;;;11.89;100.00
20455;BME280;10386;54.314;10.022;2023-03-23T08:51:09;98834.69;;;12.02;100.00
20455;BME280;10386;54.314;10.022;2023-03-23T08:53:35;98858.50;;;12.16;100.00
20455;BME280;10386;54.314;10.022;2023-03-23T08:56:06;98876.69;;;12.23;100.00
20455;BME280;10386;54.314;10.022;2023-03-23T08:58:34;98923.78;;;12.16;100.00
20455;BME280;10386;54.314;10.022;2023-03-23T09:01:00;98942.88;;;12.32;100.00
20455;BME280;10386;54.314;10.022;2023-03-23T09:03:26;98966.72;;;12.53;100.00
20455;BME280;10386;54.314;10.022;2023-03-23T09:05:53;99033.78;;;12.62;100.00
20455;BME280;10386;54.314;10.022;2023-03-23T09:08:19;99069.72;;;12.33;100.00
20455;BME280;10386;54.314;10.022;2023-03-23T09:10:45;99092.84;;;12.29;100.00
20455;BME280;10386;54.314;10.022;2023-03-23T09:13:11;99114.16;;;12.33;100.00
20455;BME280;10386;54.314;10.022;2023-03-23T09:15:36;99126.28;;;12.88;100.00
20455;BME280;10386;54.314;10.022;2023-03-23T09:18:02;99165.84;;;13.00;100.00
20455;BME280;10386;54.314;10.022;2023-03-23T09:20:29;99187.16;;;13.04;100.00
20455;BME280;10386;54.314;10.022;2023-03-23T09:22:56;99210.41;;;13.32;100.00
20455;BME280;10386;54.314;10.022;2023-03-23T09:25:24;99330.22;;;13.08;100.00
20455;BME280;10386;54.314;10.022;2023-03-23T09:27:56;99369.41;;;12.72;100.00
20455;BME280;10386;54.314;10.022;2023-03-23T09:30:30;99409.13;;;12.40;100.00
20455;BME280;10386;54.314;10.022;2023-03-23T09:32:57;99424.88;;;12.37;100.00
20455;BME280;10386;54.314;10.022;2023-03-23T09:35:23;99447.00;;;12.24;100.00
20455;BME280;10386;54.314;10.022;2023-03-23T09:37:51;99481.53;;;12.24;100.00
20455;BME280;10386;54.314;10.022;2023-03-23T09:48:07;99608.94;;;12.38;100.00
20455;BME280;10386;54.314;10.022;2023-03-23T09:50:40;99655.72;;;12.50;100.00
20455;BME280;10386;54.314;10.022;2023-03-23T09:53:20;99683.41;;;12.46;100.00
20455;BME280;10386;54.314;10.022;2023-03-23T09:55:46;99711.03;;;12.51;100.00
20455;BME280;10386;54.314;10.022;2023-03-23T10:01:26;99764.00;;;12.66;100.00
20455;BME280;10386;54.314;10.022;2023-03-23T10:04:02;99787.03;;;12.71;100.00
20455;BME280;10386;54.314;10.022;2023-03-23T10:06:28;99813.91;;;12.47;100.00
20455;BME280;10386;54.314;10.022;2023-03-23T10:08:57;99834.56;;;12.22;100.00
20455;BME280;10386;54.314;10.022;2023-03-23T10:14:31;99882.19;;;11.78;100.00
20455;BME280;10386;54.314;10.022;2023-03-23T10:17:18;99885.09;;;12.05;100.00
20455;BME280;10386;54.314;10.022;2023-03-23T10:22:29;99945.72;;;12.64;100.00
20455;BME280;10386;54.314;10.022;2023-03-23T10:25:16;99966.63;;;12.63;100.00
20455;BME280;10386;54.314;10.022;2023-03-23T10:35:42;100016.53;;;12.83;100.00
20455;BME280;10386;54.314;10.022;2023-03-23T10:38:19;100018.69;;;12.70;100.00
20455;BME280;10386;54.314;10.022;2023-03-23T10:41:01;100038.06;;;12.76;100.00
20455;BME280;10386;54.314;10.022;2023-03-23T10:43:29;100032.84;;;12.54;100.00
20455;BME280;10386;54.314;10.022;2023-03-23T10:45:59;100054.13;;;12.79;100.00
20455;BME280;10386;54.314;10.022;2023-03-23T10:48:33;100048.97;;;13.14;100.00
20455;BME280;10386;54.314;10.022;2023-03-23T10:51:04;100050.38;;;13.37;100.00
20455;BME280;10386;54.314;10.022;2023-03-23T10:53:36;100062.28;;;13.36;100.00
20455;BME280;10386;54.314;10.022;2023-03-23T10:56:04;100060.41;;;13.56;100.00
20455;BME280;10386;54.314;10.022;2023-03-23T10:58:32;100071.09;;;13.85;100.00
20455;BME280;10386;54.314;10.022;2023-03-23T11:01:00;100067.00;;;13.63;100.00
20455;BME280;10386;54.314;10.022;2023-03-23T11:03:40;100085.44;;;13.23;100.00
20455;BME280;10386;54.314;10.022;2023-03-23T11:06:08;100087.69;;;13.46;100.00
20455;BME280;10386;54.314;10.022;2023-03-23T11:08:38;100077.66;;;13.47;100.00
20455;BME280;10386;54.314;10.022;2023-03-23T11:13:46;100098.75;;;13.16;100.00
20455;BME280;10386;54.314;10.022;2023-03-23T11:17:05;100102.75;;;13.60;100.00
20455;BME280;10386;54.314;10.022;2023-03-23T11:19:14;100094.63;;;13.86;100.00
20455;BME280;10386;54.314;10.022;2023-03-23T11:21:40;100093.59;;;14.06;100.00
20455;BME280;10386;54.314;10.022;2023-03-23T11:24:08;100082.34;;;14.19;100.00
20455;BME280;10386;54.314;10.022;2023-03-23T11:26:34;100091.00;;;14.14;100.00
20455;BME280;10386;54.314;10.022;2023-03-23T11:29:13;100094.13;;;13.64;100.00
20455;BME280;10386;54.314;10.022;2023-03-23T11:31:45;100104.47;;;13.70;100.00
20455;BME280;10386;54.314;10.022;2023-03-23T11:34:22;100112.59;;;13.89;100.00
20455;BME280;10386;54.314;10.022;2023-03-23T11:37:10;100116.75;;;13.83;100.00
20455;BME280;10386;54.314;10.022;2023-03-23T11:39:57;100119.41;;;14.12;100.00
20455;BME280;10386;54.314;10.022;2023-03-23T11:42:25;100114.06;;;13.65;100.00
20455;BME280;10386;54.314;10.022;2023-03-23T11:44:53;100128.72;;;13.07;100.00
20455;BME280;10386;54.314;10.022;2023-03-23T11:47:40;100151.59;;;12.85;100.00
20455;BME280;10386;54.314;10.022;2023-03-23T11:50:20;100161.84;;;12.63;100.00
20455;BME280;10386;54.314;10.022;2023-03-23T11:53:09;100160.53;;;12.97;100.00
20455;BME280;10386;54.314;10.022;2023-03-23T11:55:54;100161.97;;;13.01;100.00
20455;BME280;10386;54.314;10.022;2023-03-23T11:58:21;100141.81;;;12.73;100.00
20455;BME280;10386;54.314;10.022;2023-03-23T12:03:56;100143.38;;;13.15;100.00
20455;BME280;10386;54.314;10.022;2023-03-23T12:06:31;100150.97;;;13.59;100.00
20455;BME280;10386;54.314;10.022;2023-03-23T12:09:31;100155.41;;;13.79;100.00
20455;BME280;10386;54.314;10.022;2023-03-23T12:15:26;100150.63;;;14.00;100.00
20455;BME280;10386;54.314;10.022;2023-03-23T12:28:54;100123.78;;;14.51;100.00
20455;BME280;10386;54.314;10.022;2023-03-23T12:31:45;100158.09;;;14.53;100.00
20455;BME280;10386;54.314;10.022;2023-03-23T12:44:58;100127.03;;;14.54;100.00
20455;BME280;10386;54.314;10.022;2023-03-23T12:47:41;100138.56;;;14.48;100.00
20455;BME280;10386;54.314;10.022;2023-03-23T12:53:08;100137.94;;;14.64;100.00
20455;BME280;10386;54.314;10.022;2023-03-23T12:58:28;100154.59;;;15.41;100.00
20455;BME280;10386;54.314;10.022;2023-03-23T13:03:28;100118.88;;;14.45;100.00
20455;BME280;10386;54.314;10.022;2023-03-23T13:08:53;100158.56;;;13.84;100.00
20455;BME280;10386;54.314;10.022;2023-03-23T13:11:35;100211.41;;;13.74;100.00
20455;BME280;10386;54.314;10.022;2023-03-23T13:22:32;100232.06;;;14.14;100.00
20455;BME280;10386;54.314;10.022;2023-03-23T13:25:06;100234.06;;;14.02;100.00
20455;BME280;10386;54.314;10.022;2023-03-23T13:27:34;100232.38;;;13.82;100.00
20455;BME280;10386;54.314;10.022;2023-03-23T13:30:01;100227.78;;;13.74;100.00
20455;BME280;10386;54.314;10.022;2023-03-23T13:32:38;100228.22;;;13.88;100.00
20455;BME280;10386;54.314;10.022;2023-03-23T13:35:13;100215.41;;;13.98;100.00
20455;BME280;10386;54.314;10.022;2023-03-23T13:37:45;100211.53;;;14.00;100.00
20455;BME280;10386;54.314;10.022;2023-03-23T13:40:24;100218.13;;;14.26;100.00
20455;BME280;10386;54.314;10.022;2023-03-23T13:43:01;100204.91;;;14.22;100.00
20455;BME280;10386;54.314;10.022;2023-03-23T13:53:22;100191.00;;;14.61;100.00
20455;BME280;10386;54.314;10.022;2023-03-23T13:55:51;100160.22;;;14.23;100.00
20455;BME280;10386;54.314;10.022;2023-03-23T13:58:26;100161.38;;;14.11;100.00
20455;BME280;10386;54.314;10.022;2023-03-23T14:03:38;100200.06;;;13.40;100.00
20455;BME280;10386;54.314;10.022;2023-03-23T14:06:15;100219.06;;;13.12;100.00
20455;BME280;10386;54.314;10.022;2023-03-23T14:08:44;100242.38;;;13.25;100.00
20455;BME280;10386;54.314;10.022;2023-03-23T14:11:24;100257.06;;;13.62;100.00
20455;BME280;10386;54.314;10.022;2023-03-23T14:16:42;100229.50;;;13.75;100.00
20455;BME280;10386;54.314;10.022;2023-03-23T14:21:50;100213.97;;;13.84;100.00
20455;BME280;10386;54.314;10.022;2023-03-23T14:24:20;100210.41;;;13.84;100.00
20455;BME280;10386;54.314;10.022;2023-03-23T14:26:50;100221.44;;;13.82;100.00
20455;BME280;10386;54.314;10.022;2023-03-23T14:29:19;100226.91;;;13.92;100.00
20455;BME280;10386;54.314;10.022;2023-03-23T14:31:51;100218.59;;;13.75;100.00
20455;BME280;10386;54.314;10.022;2023-03-23T14:34:24;100232.66;;;13.61;100.00